Time;durP1;ratioP1;P1;durP2;ratioP2;P2;SDS_P1;SDS_P2;PMS_P1;PMS_P2;Temp;Humidity;BMP_temperature;BMP_pressure;BME280_temperature;BME280_humidity;BME280_pressure;Samples;Min_cycle;Max_cycle;Signal;HPM_P1;HPM_P2
2022/07/29 00:02:29;;;;;;;2.10;0.88;;;;;;;;;;10054835;28;20126;-66
2022/07/29 00:07:25;;;;;;;2.95;0.98;;;;;;;;;;10073856;28;20047;-67
2022/07/29 00:12:23;;;;;;;3.63;1.50;;;;;;;;;;10048277;28;20043;-67
2022/07/29 00:17:22;;;;;;;3.60;1.70;;;;;;;;;;10072958;28;20552;-67
2022/07/29 00:22:19;;;;;;;8.43;1.95;;;;;;;;;;10045401;28;20055;-67
2022/07/29 00:27:16;;;;;;;5.28;1.52;;;;;;;;;;10071071;28;20102;-67
2022/07/29 00:32:12;;;;;;;4.25;1.33;;;;;;;;;;10038765;28;20067;-67
2022/07/29 00:37:08;;;;;;;4.85;1.33;;;;;;;;;;10070037;28;20044;-67
2022/07/29 00:42:05;;;;;;;2.63;1.10;;;;;;;;;;10077578;28;20071;-67
2022/07/29 00:47:01;;;;;;;4.75;1.50;;;;;;;;;;10059136;28;20098;-67
2022/07/29 00:51:58;;;;;;;3.78;1.45;;;;;;;;;;10052663;28;20047;-67
2022/07/29 00:56:56;;;;;;;5.70;1.50;;;;;;;;;;10042936;28;20478;-67
2022/07/29 01:01:52;;;;;;;4.47;1.45;;;;;;;;;;10037080;28;20059;-67
2022/07/29 01:06:49;;;;;;;6.75;1.80;;;;;;;;;;10066066;28;20082;-67
2022/07/29 01:11:47;;;;;;;4.78;2.00;;;;;;;;;;10074298;28;20513;-67
2022/07/29 01:16:49;;;;;;;4.10;1.23;;;;;;;;;;10064370;28;20118;-67
2022/07/29 01:21:45;;;;;;;4.53;1.65;;;;;;;;;;10065619;28;20560;-67
2022/07/29 01:26:44;;;;;;;3.80;1.50;;;;;;;;;;10065167;28;20876;-68
2022/07/29 01:31:44;;;;;;;2.80;1.27;;;;;;;;;;10074569;28;20130;-67
2022/07/29 01:37:08;;;;;;;3.88;1.48;;;;;;;;;;10074543;28;20102;-67
2022/07/29 01:42:04;;;;;;;4.75;1.25;;;;;;;;;;10036313;28;20044;-67
2022/07/29 01:47:04;;;;;;;6.38;1.52;;;;;;;;;;10053835;28;20055;-67
2022/07/29 01:52:07;;;;;;;4.53;1.52;;;;;;;;;;10035768;28;20173;-67
2022/07/29 01:57:04;;;;;;;5.95;1.40;;;;;;;;;;10037984;28;20422;-67
2022/07/29 02:02:01;;;;;;;4.00;1.27;;;;;;;;;;10034910;28;20090;-67
2022/07/29 02:07:01;;;;;;;3.88;1.52;;;;;;;;;;10066110;28;20050;-68
2022/07/29 02:11:59;;;;;;;6.18;1.52;;;;;;;;;;10037963;28;20044;-67
2022/07/29 02:16:55;;;;;;;5.75;1.63;;;;;;;;;;10053722;28;20047;-67
2022/07/29 02:21:53;;;;;;;4.78;1.75;;;;;;;;;;10034266;28;20086;-67
2022/07/29 02:26:49;;;;;;;6.35;2.33;;;;;;;;;;10054238;28;20067;-67
2022/07/29 02:31:47;;;;;;;6.63;2.08;;;;;;;;;;10043291;28;20505;-67
2022/07/29 02:36:45;;;;;;;4.40;1.38;;;;;;;;;;10049970;28;20063;-67
2022/07/29 02:41:46;;;;;;;5.18;1.65;;;;;;;;;;10043206;28;20047;-67
2022/07/29 02:46:49;;;;;;;4.50;1.60;;;;;;;;;;10043369;28;20131;-67
2022/07/29 02:51:45;;;;;;;;;;;;;;;;;;10042886;28;20119;-67
2022/07/29 02:56:43;;;;;;;6.28;1.92;;;;;;;;;;10070601;28;20204;-67
2022/07/29 03:01:41;;;;;;;5.57;1.35;;;;;;;;;;10069312;28;20142;-67
2022/07/29 03:06:38;;;;;;;5.55;1.50;;;;;;;;;;10069491;28;20047;-67
2022/07/29 03:11:35;;;;;;;4.38;1.60;;;;;;;;;;10058307;28;20123;-67
2022/07/29 03:16:44;;;;;;;5.05;1.55;;;;;;;;;;10070536;28;20057;-67
2022/07/29 03:21:41;;;;;;;4.10;1.55;;;;;;;;;;10079960;28;20055;-67
2022/07/29 03:26:37;;;;;;;4.03;1.83;;;;;;;;;;10079319;28;20391;-67
2022/07/29 03:31:33;;;;;;;9.80;2.42;;;;;;;;;;10054257;28;20047;-67
2022/07/29 03:36:30;;;;;;;5.93;1.40;;;;;;;;;;10066662;28;20580;-67
2022/07/29 03:41:26;;;;;;;4.38;1.80;;;;;;;;;;10044661;28;20052;-67
2022/07/29 03:46:23;;;;;;;6.10;1.50;;;;;;;;;;10055510;28;20419;-67
2022/07/29 03:51:20;;;;;;;9.02;2.03;;;;;;;;;;10040832;28;20052;-66
2022/07/29 03:56:31;;;;;;;6.60;1.50;;;;;;;;;;10052789;28;20054;-67
2022/07/29 04:01:29;;;;;;;6.13;2.00;;;;;;;;;;10040467;28;20130;-67
2022/07/29 04:06:25;;;;;;;4.68;1.75;;;;;;;;;;10065653;28;20126;-67
2022/07/29 04:11:21;;;;;;;5.05;1.77;;;;;;;;;;10077859;28;20079;-67
2022/07/29 04:16:18;;;;;;;5.88;1.98;;;;;;;;;;10060304;28;20087;-67
2022/07/29 04:21:14;;;;;;;5.97;1.67;;;;;;;;;;10038789;28;20054;-67
2022/07/29 04:26:11;;;;;;;4.80;1.92;;;;;;;;;;10063561;28;20043;-67
2022/07/29 04:31:07;;;;;;;5.18;1.48;;;;;;;;;;10055686;28;20126;-66
2022/07/29 04:36:03;;;;;;;6.65;1.75;;;;;;;;;;10062460;28;20170;-66
2022/07/29 04:41:20;;;;;;;6.40;2.10;;;;;;;;;;10038349;28;20138;-66
2022/07/29 04:46:16;;;;;;;6.00;1.85;;;;;;;;;;10043708;28;20469;-66
2022/07/29 04:51:13;;;;;;;5.32;1.58;;;;;;;;;;10037144;28;20047;-66
2022/07/29 04:56:09;;;;;;;5.75;1.60;;;;;;;;;;10062291;28;20051;-66
2022/07/29 05:01:06;;;;;;;6.70;2.03;;;;;;;;;;10075949;28;20078;-67
2022/07/29 05:06:02;;;;;;;6.32;1.67;;;;;;;;;;10066374;28;20525;-67
2022/07/29 05:10:59;;;;;;;4.80;1.80;;;;;;;;;;10075758;28;20043;-67
2022/07/29 05:16:08;;;;;;;5.78;2.20;;;;;;;;;;10061484;28;20592;-66
2022/07/29 05:21:04;;;;;;;5.07;1.65;;;;;;;;;;10056360;28;20044;-67
2022/07/29 05:26:00;;;;;;;5.38;1.85;;;;;;;;;;10058915;28;20070;-67
2022/07/29 05:30:57;;;;;;;5.57;1.60;;;;;;;;;;10054418;28;20048;-67
2022/07/29 05:35:53;;;;;;;6.13;1.98;;;;;;;;;;10058838;28;20126;-67
2022/07/29 05:40:56;;;;;;;7.07;2.42;;;;;;;;;;10050982;28;20514;-68
2022/07/29 05:45:52;;;;;;;7.72;2.00;;;;;;;;;;10055209;28;20090;-67
2022/07/29 05:50:49;;;;;;;5.18;2.00;;;;;;;;;;10036091;28;20054;-67
2022/07/29 05:55:45;;;;;;;6.13;1.88;;;;;;;;;;10051844;28;20126;-67
2022/07/29 06:00:41;;;;;;;5.65;2.20;;;;;;;;;;10042297;28;20844;-67
2022/07/29 06:05:38;;;;;;;6.80;2.03;;;;;;;;;;10063395;28;20054;-67
2022/07/29 06:10:35;;;;;;;5.75;1.85;;;;;;;;;;10048508;28;20099;-67
2022/07/29 06:15:31;;;;;;;6.13;1.98;;;;;;;;;;10058754;28;20123;-67
2022/07/29 06:20:29;;;;;;;8.25;1.98;;;;;;;;;;10047845;28;20043;-67
2022/07/29 06:25:30;;;;;;;5.20;1.63;;;;;;;;;;10052389;28;20054;-66
2022/07/29 06:30:26;;;;;;;4.85;1.80;;;;;;;;;;10047998;28;20075;-66
2022/07/29 06:35:23;;;;;;;5.57;1.65;;;;;;;;;;10066528;28;20521;-66
2022/07/29 06:45:55;;;;;;;6.90;2.20;;;;;;;;;;10073936;28;20074;-66
2022/07/29 06:50:52;;;;;;;7.40;1.90;;;;;;;;;;10084953;28;20043;-66
2022/07/29 06:55:49;;;;;;;5.65;1.60;;;;;;;;;;10069352;28;20078;-66
2022/07/29 07:00:47;;;;;;;5.97;1.83;;;;;;;;;;10082019;28;20047;-66
2022/07/29 07:05:43;;;;;;;4.72;1.50;;;;;;;;;;10068900;28;20050;-67
2022/07/29 07:10:40;;;;;;;6.25;2.03;;;;;;;;;;10085220;28;20403;-67
2022/07/29 07:15:37;;;;;;;5.75;2.03;;;;;;;;;;10079957;28;20094;-67
2022/07/29 07:20:35;;;;;;;5.60;1.90;;;;;;;;;;10051605;28;20510;-67
2022/07/29 07:25:32;;;;;;;4.28;1.52;;;;;;;;;;10060268;28;20090;-67
2022/07/29 07:30:28;;;;;;;5.72;2.30;;;;;;;;;;10050971;28;20051;-66
2022/07/29 07:35:26;;;;;;;5.50;1.40;;;;;;;;;;10059236;28;20066;-66
2022/07/29 07:40:23;;;;;;;5.70;1.48;;;;;;;;;;10079709;28;20465;-66
2022/07/29 07:45:20;;;;;;;7.45;2.08;;;;;;;;;;10078033;28;20496;-66
2022/07/29 07:50:17;;;;;;;5.35;1.80;;;;;;;;;;10079099;28;20043;-66
2022/07/29 07:55:14;;;;;;;5.10;1.42;;;;;;;;;;10072244;28;20409;-66
2022/07/29 08:00:12;;;;;;;7.03;2.60;;;;;;;;;;10075383;28;20110;-66
2022/07/29 08:05:09;;;;;;;8.68;2.28;;;;;;;;;;10056070;28;20058;-67
2022/07/29 08:10:08;;;;;;;6.70;2.05;;;;;;;;;;10056099;28;20052;-66
2022/07/29 08:15:06;;;;;;;3.85;1.67;;;;;;;;;;10055287;28;20074;-66
2022/07/29 08:20:03;;;;;;;6.78;2.33;;;;;;;;;;10053212;28;20482;-67
2022/07/29 08:25:00;;;;;;;7.28;2.17;;;;;;;;;;10054439;29;20051;-67
2022/07/29 08:29:57;;;;;;;5.88;2.33;;;;;;;;;;10046756;28;20071;-67
2022/07/29 08:34:53;;;;;;;6.32;1.33;;;;;;;;;;10052616;28;20513;-67
2022/07/29 08:39:49;;;;;;;4.53;1.85;;;;;;;;;;10075981;28;20417;-67
2022/07/29 08:44:45;;;;;;;7.38;2.00;;;;;;;;;;10068209;28;20040;-67
2022/07/29 08:49:43;;;;;;;4.38;2.00;;;;;;;;;;10037406;28;20071;-67
2022/07/29 08:54:42;;;;;;;5.38;2.00;;;;;;;;;;10050386;28;20072;-67
2022/07/29 08:59:40;;;;;;;5.88;2.08;;;;;;;;;;10076054;28;20130;-67
2022/07/29 09:04:37;;;;;;;4.13;2.20;;;;;;;;;;10054926;28;20493;-67
2022/07/29 09:09:34;;;;;;;4.65;2.17;;;;;;;;;;10075856;28;20070;-67
2022/07/29 09:14:30;;;;;;;4.68;2.35;;;;;;;;;;10048977;28;20125;-67
2022/07/29 09:19:28;;;;;;;3.75;2.20;;;;;;;;;;10057576;28;20079;-67
2022/07/29 09:24:44;;;;;;;5.50;2.20;;;;;;;;;;10047010;28;20074;-66
2022/07/29 09:29:41;;;;;;;4.75;2.30;;;;;;;;;;10036739;28;20047;-67
2022/07/29 09:34:37;;;;;;;5.60;2.53;;;;;;;;;;10047202;28;20086;-67
2022/07/29 09:39:34;;;;;;;4.88;2.58;;;;;;;;;;10074689;28;20055;-67
2022/07/29 09:44:40;;;;;;;4.93;2.63;;;;;;;;;;10064253;28;20079;-67
2022/07/29 09:49:57;;;;;;;4.65;2.85;;;;;;;;;;10035741;28;20115;-67
2022/07/29 09:55:07;;;;;;;8.05;2.85;;;;;;;;;;10064408;28;20081;-66
2022/07/29 10:00:22;;;;;;;6.78;4.00;;;;;;;;;;10072919;28;20107;-67
2022/07/29 10:05:23;;;;;;;8.20;2.90;;;;;;;;;;10053853;28;20083;-68
2022/07/29 10:10:28;;;;;;;6.97;3.45;;;;;;;;;;10070474;28;20052;-67
2022/07/29 10:15:27;;;;;;;5.72;3.80;;;;;;;;;;10053993;28;20047;-67
2022/07/29 10:20:23;;;;;;;8.32;3.25;;;;;;;;;;10061300;28;20078;-67
2022/07/29 10:25:20;;;;;;;5.10;3.15;;;;;;;;;;10053478;28;20079;-67
2022/07/29 10:30:17;;;;;;;4.40;2.72;;;;;;;;;;10045534;28;20127;-67
2022/07/29 10:35:13;;;;;;;5.85;3.28;;;;;;;;;;10049001;28;20099;-67
2022/07/29 10:46:02;;;;;;;6.85;3.60;;;;;;;;;;10058879;28;20497;-67
2022/07/29 10:51:03;;;;;;;6.78;3.55;;;;;;;;;;10081112;28;20047;-67
2022/07/29 10:56:02;;;;;;;7.13;3.60;;;;;;;;;;10071831;28;20051;-67
2022/07/29 11:01:31;;;;;;;5.63;3.85;;;;;;;;;;10079476;28;20057;-67
2022/07/29 11:06:51;;;;;;;6.55;3.38;;;;;;;;;;10068889;28;20052;-67
2022/07/29 11:11:48;;;;;;;5.07;3.05;;;;;;;;;;10059685;28;20143;-66
2022/07/29 11:17:02;;;;;;;4.13;3.47;;;;;;;;;;10070697;28;20523;-66
2022/07/29 11:22:02;;;;;;;4.90;3.58;;;;;;;;;;10046406;28;20047;-66
2022/07/29 11:27:07;;;;;;;7.78;3.83;;;;;;;;;;10071243;28;20125;-66
2022/07/29 11:32:15;;;;;;;4.30;3.42;;;;;;;;;;10042480;28;20593;-66
2022/07/29 11:37:19;;;;;;;6.50;4.80;;;;;;;;;;10065730;28;20536;-66
2022/07/29 11:42:35;;;;;;;8.10;3.97;;;;;;;;;;10040179;28;20048;-67
2022/07/29 11:47:37;;;;;;;5.40;3.90;;;;;;;;;;10058487;28;20048;-66
2022/07/29 11:52:46;;;;;;;4.90;3.58;;;;;;;;;;10040255;28;20048;-66
2022/07/29 11:57:46;;;;;;;6.05;3.60;;;;;;;;;;10043014;28;20051;-69
2022/07/29 12:03:01;;;;;;;5.30;4.25;;;;;;;;;;10047855;28;20051;-67
2022/07/29 12:08:04;;;;;;;4.13;3.65;;;;;;;;;;10077946;28;20051;-67
2022/07/29 12:13:01;;;;;;;8.02;4.25;;;;;;;;;;10057073;28;20399;-67
2022/07/29 12:17:57;;;;;;;6.65;3.75;;;;;;;;;;10077571;28;20134;-66
2022/07/29 12:22:59;;;;;;;;;;;;;;;;;;10044673;28;20059;-66
2022/07/29 12:28:03;;;;;;;5.50;3.50;;;;;;;;;;10076441;28;19922;-66
2022/07/29 12:33:00;;;;;;;5.20;3.88;;;;;;;;;;10076426;28;20513;-66
2022/07/29 12:37:57;;;;;;;11.98;3.70;;;;;;;;;;10062863;28;20051;-66
2022/07/29 12:43:12;;;;;;;5.53;3.40;;;;;;;;;;10064921;28;20047;-66
2022/07/29 12:48:08;;;;;;;5.82;3.65;;;;;;;;;;10037646;28;20658;-66
2022/07/29 12:53:09;;;;;;;4.95;3.55;;;;;;;;;;10058709;28;20133;-66
2022/07/29 12:58:06;;;;;;;6.95;3.70;;;;;;;;;;10068624;28;20094;-66
2022/07/29 13:03:02;;;;;;;7.95;3.47;;;;;;;;;;10037234;28;20047;-66
2022/07/29 13:08:12;;;;;;;6.30;3.58;;;;;;;;;;10036971;28;20048;-66
2022/07/29 13:13:17;;;;;;;6.93;3.40;;;;;;;;;;10038754;28;20510;-66
2022/07/29 13:18:26;;;;;;;4.07;3.17;;;;;;;;;;10074799;28;20082;-66
2022/07/29 13:23:22;;;;;;;5.32;3.40;;;;;;;;;;10073387;28;20105;-66
2022/07/29 13:28:21;;;;;;;4.72;3.60;;;;;;;;;;10035942;28;20079;-66
2022/07/29 13:33:17;;;;;;;5.35;3.65;;;;;;;;;;10038175;28;20090;-66
2022/07/29 13:38:13;;;;;;;6.38;4.05;;;;;;;;;;10074710;28;20055;-65
2022/07/29 13:43:10;;;;;;;6.72;3.55;;;;;;;;;;10073609;28;20142;-66
2022/07/29 13:48:06;;;;;;;4.00;3.22;;;;;;;;;;10074177;28;20082;-66
2022/07/29 13:53:03;;;;;;;5.15;3.15;;;;;;;;;;10062871;28;20173;-66
2022/07/29 13:58:00;;;;;;;5.25;3.90;;;;;;;;;;10070035;28;20056;-66
2022/07/29 14:02:59;;;;;;;5.22;3.88;;;;;;;;;;10035509;28;20056;-66
2022/07/29 14:07:55;;;;;;;5.45;4.10;;;;;;;;;;10068688;28;20086;-66
2022/07/29 14:12:51;;;;;;;6.85;3.50;;;;;;;;;;10035642;28;20079;-66
2022/07/29 14:17:48;;;;;;;5.75;3.83;;;;;;;;;;10054175;28;20195;-66
2022/07/29 14:22:44;;;;;;;4.63;3.47;;;;;;;;;;10040665;28;20098;-66
2022/07/29 14:27:41;;;;;;;8.00;3.75;;;;;;;;;;10078940;28;20051;-66
2022/07/29 14:32:38;;;;;;;5.68;3.80;;;;;;;;;;10082177;28;20047;-66
2022/07/29 14:37:35;;;;;;;7.07;3.30;;;;;;;;;;10050191;28;20099;-66
2022/07/29 14:42:37;;;;;;;5.88;3.90;;;;;;;;;;10042959;28;20122;-66
2022/07/29 14:47:33;;;;;;;6.35;3.80;;;;;;;;;;10076097;28;20649;-66
2022/07/29 14:52:29;;;;;;;9.55;3.78;;;;;;;;;;10064261;28;20450;-66
2022/07/29 14:57:26;;;;;;;5.47;3.40;;;;;;;;;;10076812;28;20509;-66
2022/07/29 15:02:22;;;;;;;6.63;4.20;;;;;;;;;;10058913;28;20111;-66
2022/07/29 15:07:35;;;;;;;4.43;3.65;;;;;;;;;;10072787;28;20421;-66
2022/07/29 15:12:31;;;;;;;7.65;4.38;;;;;;;;;;10041625;28;20095;-66
2022/07/29 15:17:28;;;;;;;7.88;3.83;;;;;;;;;;10062620;28;20075;-66
2022/07/29 15:22:24;;;;;;;5.75;3.83;;;;;;;;;;10041246;28;20135;-66
2022/07/29 15:27:20;;;;;;;8.85;4.35;;;;;;;;;;10042502;28;20498;-66
2022/07/29 15:32:16;;;;;;;6.13;4.53;;;;;;;;;;10039908;28;20142;-66
2022/07/29 15:37:13;;;;;;;5.68;3.90;;;;;;;;;;10073023;28;20113;-68
2022/07/29 15:42:09;;;;;;;5.05;4.15;;;;;;;;;;10058896;28;20052;-66
2022/07/29 15:47:08;;;;;;;6.15;4.10;;;;;;;;;;10071939;28;20085;-66
2022/07/29 15:52:06;;;;;;;4.55;3.53;;;;;;;;;;10051452;28;20052;-66
2022/07/29 15:57:03;;;;;;;5.05;4.15;;;;;;;;;;10070708;28;20051;-67
2022/07/29 16:02:00;;;;;;;6.47;3.70;;;;;;;;;;10047141;28;20051;-66
2022/07/29 16:06:57;;;;;;;11.95;4.22;;;;;;;;;;10069695;28;20047;-66
2022/07/29 16:11:55;;;;;;;8.23;4.60;;;;;;;;;;10046812;28;20545;-66
2022/07/29 16:16:51;;;;;;;4.85;3.78;;;;;;;;;;10069206;28;20078;-66
2022/07/29 16:21:47;;;;;;;6.90;4.25;;;;;;;;;;10041404;28;20054;-67
2022/07/29 16:26:43;;;;;;;5.25;4.05;;;;;;;;;;10067844;28;20085;-67
2022/07/29 16:31:40;;;;;;;7.07;3.80;;;;;;;;;;10041271;28;20082;-67
2022/07/29 16:36:36;;;;;;;6.47;4.65;;;;;;;;;;10064217;28;20051;-67
2022/07/29 16:41:32;;;;;;;8.10;4.97;;;;;;;;;;10038227;28;20736;-67
2022/07/29 16:46:29;;;;;;;7.57;4.70;;;;;;;;;;10052487;28;20561;-67
2022/07/29 16:51:25;;;;;;;5.93;4.40;;;;;;;;;;10037934;28;20071;-66
2022/07/29 16:56:21;;;;;;;7.57;4.57;;;;;;;;;;10064419;28;20156;-66
2022/07/29 17:01:18;;;;;;;5.80;4.00;;;;;;;;;;10072688;28;20570;-66
2022/07/29 17:06:14;;;;;;;5.60;4.65;;;;;;;;;;10062615;28;20579;-66
2022/07/29 17:11:11;;;;;;;7.65;4.80;;;;;;;;;;10055918;28;20170;-66
2022/07/29 17:16:08;;;;;;;5.50;4.15;;;;;;;;;;10061029;28;20421;-67
2022/07/29 17:21:04;;;;;;;8.27;3.90;;;;;;;;;;10075551;28;20058;-67
2022/07/29 17:26:02;;;;;;;9.43;4.57;;;;;;;;;;10070969;28;20075;-66
2022/07/29 17:30:58;;;;;;;9.07;4.05;;;;;;;;;;10036581;28;20119;-67
2022/07/29 17:41:26;;;;;;;7.35;3.97;;;;;;;;;;10056112;28;20082;-66
2022/07/29 17:46:25;;;;;;;4.43;3.40;;;;;;;;;;10039400;28;20545;-66
2022/07/29 17:51:22;;;;;;;5.28;3.70;;;;;;;;;;10035881;28;20773;-66
2022/07/29 17:56:19;;;;;;;6.85;3.00;;;;;;;;;;10061190;28;20051;-66
2022/07/29 18:01:15;;;;;;;6.05;3.40;;;;;;;;;;10074579;28;20545;-66
2022/07/29 18:06:11;;;;;;;5.97;2.80;;;;;;;;;;10064296;28;20047;-66
2022/07/29 18:11:08;;;;;;;7.22;3.25;;;;;;;;;;10064137;28;20594;-66
2022/07/29 18:16:10;;;;;;;4.53;2.30;;;;;;;;;;10060386;28;20043;-66
2022/07/29 18:21:06;;;;;;;6.47;2.70;;;;;;;;;;10057550;28;20102;-66
2022/07/29 18:26:02;;;;;;;8.73;3.88;;;;;;;;;;10058856;28;20051;-66
2022/07/29 18:30:59;;;;;;;9.63;3.05;;;;;;;;;;10050099;28;20134;-66
2022/07/29 18:35:56;;;;;;;4.68;2.42;;;;;;;;;;10058074;28;20681;-66
2022/07/29 18:41:06;;;;;;;4.85;2.17;;;;;;;;;;10041764;28;20099;-66
2022/07/29 18:46:04;;;;;;;4.68;2.28;;;;;;;;;;10057975;28;20055;-66
2022/07/29 18:51:01;;;;;;;9.23;2.50;;;;;;;;;;10074304;28;20431;-66
2022/07/29 18:56:04;;;;;;;6.53;2.33;;;;;;;;;;10070717;28;20155;-67
2022/07/29 19:01:01;;;;;;;4.75;1.73;;;;;;;;;;10034433;28;20048;-66
2022/07/29 19:05:57;;;;;;;5.35;2.30;;;;;;;;;;10048333;28;20131;-69
2022/07/29 19:10:53;;;;;;;6.72;2.00;;;;;;;;;;10041393;28;20075;-67
2022/07/29 19:15:49;;;;;;;6.40;2.00;;;;;;;;;;10042148;28;20063;-67
2022/07/29 19:20:46;;;;;;;7.43;1.95;;;;;;;;;;10040335;28;20501;-67
2022/07/29 19:25:43;;;;;;;5.32;2.55;;;;;;;;;;10062199;28;20035;-67
2022/07/29 19:30:49;;;;;;;6.53;1.48;;;;;;;;;;10080215;28;20043;-67
2022/07/29 19:35:45;;;;;;;5.97;1.92;;;;;;;;;;10076586;28;20039;-67
2022/07/29 19:40:46;;;;;;;6.15;1.30;;;;;;;;;;10078563;28;20126;-67
2022/07/29 19:45:43;;;;;;;5.60;1.70;;;;;;;;;;10069443;28;20414;-67
2022/07/29 19:50:39;;;;;;;7.03;1.90;;;;;;;;;;10075626;28;20051;-67
2022/07/29 19:55:38;;;;;;;3.78;1.60;;;;;;;;;;10060912;28;20531;-67
2022/07/29 20:00:34;;;;;;;4.28;1.58;;;;;;;;;;10063936;28;20131;-67
2022/07/29 20:05:31;;;;;;;4.45;1.40;;;;;;;;;;10058881;28;20054;-67
2022/07/29 20:10:27;;;;;;;8.65;1.70;;;;;;;;;;10057133;28;20051;-67
2022/07/29 20:15:23;;;;;;;4.38;1.42;;;;;;;;;;10057921;28;20086;-67
2022/07/29 20:20:21;;;;;;;6.10;1.50;;;;;;;;;;10044930;28;20143;-67
2022/07/29 20:25:18;;;;;;;6.50;1.60;;;;;;;;;;10055213;28;20066;-67
2022/07/29 20:30:14;;;;;;;3.85;1.30;;;;;;;;;;10044660;28;20056;-67
2022/07/29 20:35:13;;;;;;;5.78;1.33;;;;;;;;;;10056007;28;20417;-67
2022/07/29 20:40:09;;;;;;;4.38;1.65;;;;;;;;;;10042133;28;20418;-67
2022/07/29 20:45:08;;;;;;;4.90;1.52;;;;;;;;;;10044030;28;20090;-67
2022/07/29 20:50:04;;;;;;;5.50;1.95;;;;;;;;;;10038656;28;20090;-68
2022/07/29 20:55:01;;;;;;;6.43;1.90;;;;;;;;;;10054567;29;20410;-67
2022/07/29 20:59:57;;;;;;;8.57;1.92;;;;;;;;;;10077101;28;20421;-67
2022/07/29 21:04:53;;;;;;;4.78;1.70;;;;;;;;;;10066249;28;20047;-67
2022/07/29 21:09:49;;;;;;;5.57;1.73;;;;;;;;;;10075988;28;20063;-67
2022/07/29 21:14:46;;;;;;;7.30;1.65;;;;;;;;;;10056723;28;20054;-67
2022/07/29 21:19:43;;;;;;;11.20;2.13;;;;;;;;;;10075778;28;20047;-67
2022/07/29 21:24:39;;;;;;;6.65;2.00;;;;;;;;;;10053793;28;20118;-67
2022/07/29 21:29:35;;;;;;;11.70;2.20;;;;;;;;;;10075508;28;20047;-67
2022/07/29 21:34:32;;;;;;;8.10;1.73;;;;;;;;;;10052953;28;20098;-67
2022/07/29 21:39:28;;;;;;;4.35;1.42;;;;;;;;;;10074041;28;20047;-67
2022/07/29 21:44:24;;;;;;;6.50;2.10;;;;;;;;;;10050009;28;20094;-67
2022/07/29 21:49:20;;;;;;;7.68;1.35;;;;;;;;;;10074857;28;20143;-67
2022/07/29 21:54:17;;;;;;;5.93;1.80;;;;;;;;;;10049559;28;20051;-67
2022/07/29 21:59:16;;;;;;;8.65;1.88;;;;;;;;;;10063791;28;20062;-67
2022/07/29 22:04:12;;;;;;;6.47;1.70;;;;;;;;;;10044595;28;20438;-67
2022/07/29 22:09:08;;;;;;;6.05;1.58;;;;;;;;;;10055276;28;20063;-67
2022/07/29 22:14:06;;;;;;;6.80;1.73;;;;;;;;;;10043950;28;20564;-67
2022/07/29 22:19:02;;;;;;;6.80;1.90;;;;;;;;;;10052586;28;20098;-67
2022/07/29 22:23:59;;;;;;;8.23;1.92;;;;;;;;;;10042426;28;20043;-67
2022/07/29 22:28:55;;;;;;;5.63;1.85;;;;;;;;;;10038024;28;20067;-67
2022/07/29 22:33:51;;;;;;;7.07;1.80;;;;;;;;;;10041723;28;20047;-67
2022/07/29 22:38:48;;;;;;;6.47;1.65;;;;;;;;;;10073169;28;20081;-67
2022/07/29 22:43:47;;;;;;;9.07;2.22;;;;;;;;;;10069377;28;20035;-67
2022/07/29 22:48:43;;;;;;;5.97;1.63;;;;;;;;;;10081594;28;20589;-67
2022/07/29 22:53:40;;;;;;;4.75;1.70;;;;;;;;;;10064795;28;20084;-67
2022/07/29 22:58:36;;;;;;;8.43;1.92;;;;;;;;;;10080394;28;20581;-67
2022/07/29 23:03:32;;;;;;;5.38;1.83;;;;;;;;;;10052964;28;20044;-67
2022/07/29 23:08:28;;;;;;;5.63;1.75;;;;;;;;;;10080084;28;20051;-68
2022/07/29 23:13:25;;;;;;;6.43;1.80;;;;;;;;;;10051198;28;20498;-68
2022/07/29 23:18:21;;;;;;;8.15;1.60;;;;;;;;;;10069610;28;20529;-67
2022/07/29 23:23:17;;;;;;;10.50;2.30;;;;;;;;;;10043306;28;20102;-67
2022/07/29 23:28:15;;;;;;;5.63;1.67;;;;;;;;;;10079181;28;20062;-67
2022/07/29 23:33:11;;;;;;;4.97;1.80;;;;;;;;;;10080095;28;20131;-67
2022/07/29 23:38:08;;;;;;;5.20;1.80;;;;;;;;;;10048267;28;20148;-67
2022/07/29 23:43:04;;;;;;;7.72;1.98;;;;;;;;;;10040919;28;20043;-67
2022/07/29 23:48:04;;;;;;;6.43;1.98;;;;;;;;;;10078746;28;20127;-67
2022/07/29 23:53:00;;;;;;;6.97;2.13;;;;;;;;;;10069719;28;20498;-67
2022/07/29 23:57:56;;;;;;;8.30;2.58;;;;;;;;;;10078704;28;20043;-67
